Time;durP1;ratioP1;P1;durP2;ratioP2;P2;SDS_P1;SDS_P2;PMS_P1;PMS_P2;Temp;Humidity;BMP_temperature;BMP_pressure;BME280_temperature;BME280_humidity;BME280_pressure;Samples;Min_cycle;Max_cycle;Signal;HPM_P1;HPM_P2
2022/11/08 00:03:44;;;;;;;1.77;1.10;;;25.10;63.70;;;;;;5074340;28;20534;-88
2022/11/08 00:14:23;;;;;;;1.20;1.00;;;25.10;63.70;;;;;;5053985;28;20479;-87
2022/11/08 00:16:49;;;;;;;1.80;1.17;;;25.10;63.70;;;;;;5053675;28;20449;-87
2022/11/08 00:19:18;;;;;;;1.10;1.00;;;25.10;63.60;;;;;;5054077;28;20476;-87
2022/11/08 00:21:44;;;;;;;2.37;1.50;;;25.20;63.60;;;;;;5053735;28;20447;-86
2022/11/08 00:24:11;;;;;;;1.20;1.10;;;25.10;63.50;;;;;;5053771;28;20444;-87
2022/11/08 00:26:38;;;;;;;1.10;1.00;;;25.10;63.50;;;;;;5053689;28;20453;-87
2022/11/08 00:29:05;;;;;;;1.10;0.90;;;25.20;63.60;;;;;;5053592;28;20440;-88
2022/11/08 00:31:31;;;;;;;1.17;1.00;;;25.10;63.40;;;;;;5053708;28;20491;-87
2022/11/08 00:33:58;;;;;;;1.47;1.00;;;25.20;63.50;;;;;;5053747;28;20432;-87
2022/11/08 00:36:26;;;;;;;1.50;1.10;;;25.10;63.40;;;;;;5070296;28;20447;-88
2022/11/08 00:38:53;;;;;;;1.30;1.20;;;25.20;63.50;;;;;;5073622;28;20446;-87
2022/11/08 00:41:20;;;;;;;1.30;1.10;;;25.10;63.40;;;;;;5073830;28;20440;-87
2022/11/08 00:43:46;;;;;;;1.13;1.00;;;25.10;63.30;;;;;;5073600;28;20836;-86
2022/11/08 00:46:13;;;;;;;1.23;0.90;;;25.10;63.30;;;;;;5073623;28;20811;-87
2022/11/08 00:48:40;;;;;;;1.13;1.00;;;25.10;63.30;;;;;;5073411;28;20443;-87
2022/11/08 00:51:09;;;;;;;1.40;0.90;;;25.20;63.40;;;;;;5065961;28;20478;-87
2022/11/08 00:53:38;;;;;;;1.40;1.17;;;25.30;63.50;;;;;;5053469;28;20444;-88
2022/11/08 00:56:08;;;;;;;1.00;0.80;;;25.10;63.30;;;;;;5053185;28;20464;-87
2022/11/08 00:58:35;;;;;;;1.53;1.00;;;25.10;63.30;;;;;;5053453;28;20440;-87
2022/11/08 01:01:07;;;;;;;1.13;0.90;;;25.10;63.30;;;;;;5053325;28;20449;-87
2022/11/08 01:03:34;;;;;;;1.40;1.00;;;25.20;63.40;;;;;;5062515;28;20440;-88
2022/11/08 01:06:04;;;;;;;1.53;1.23;;;25.10;63.30;;;;;;5073103;28;20448;-87
2022/11/08 01:08:31;;;;;;;1.10;0.87;;;25.20;63.30;;;;;;5073616;28;20787;-87
2022/11/08 01:11:03;;;;;;;1.13;0.90;;;25.20;63.30;;;;;;5058026;28;20981;-87
2022/11/08 01:13:30;;;;;;;1.10;1.00;;;25.10;63.20;;;;;;5053350;28;20448;-88
2022/11/08 01:15:57;;;;;;;1.73;1.30;;;25.10;63.20;;;;;;5053276;28;20842;-87
2022/11/08 01:18:24;;;;;;;1.20;0.90;;;25.10;63.20;;;;;;5053329;28;20444;-87
2022/11/08 01:20:51;;;;;;;1.30;1.00;;;25.10;63.30;;;;;;5057557;28;20447;-87
2022/11/08 01:23:18;;;;;;;1.10;0.90;;;25.10;63.20;;;;;;5057072;28;20444;-87
2022/11/08 01:25:46;;;;;;;2.20;1.20;;;25.10;63.20;;;;;;5057045;28;20456;-87
2022/11/08 01:28:15;;;;;;;1.10;0.80;;;25.10;63.20;;;;;;5057254;28;20443;-87
2022/11/08 01:30:43;;;;;;;1.10;0.80;;;25.10;63.10;;;;;;5058119;28;20472;-87
2022/11/08 01:33:11;;;;;;;1.27;1.00;;;25.30;63.30;;;;;;5056857;28;20439;-85
2022/11/08 01:35:38;;;;;;;1.10;0.77;;;25.10;63.10;;;;;;5059411;28;20448;-87
2022/11/08 01:38:06;;;;;;;1.30;1.00;;;25.10;63.20;;;;;;5056745;28;20440;-88
2022/11/08 01:40:34;;;;;;;1.40;0.90;;;25.10;63.10;;;;;;5056690;28;20444;-86
2022/11/08 01:43:31;;;;;;;1.10;0.97;;;25.10;63.10;;;;;;5056387;28;20501;-87
2022/11/08 01:46:37;;;;;;;1.00;0.80;;;25.10;62.90;;;;;;5059685;28;20435;-87
2022/11/08 01:49:18;;;;;;;1.00;0.60;;;25.10;63.00;;;;;;5076398;28;20446;-87
2022/11/08 01:51:52;;;;;;;2.80;1.10;;;25.10;63.00;;;;;;5075940;28;20547;-86
2022/11/08 01:54:23;;;;;;;1.00;0.80;;;25.10;63.10;;;;;;5076414;28;20435;-87
2022/11/08 01:56:50;;;;;;;1.50;1.10;;;25.10;63.00;;;;;;5065055;28;20444;-84
2022/11/08 01:59:19;;;;;;;1.30;0.90;;;25.10;63.00;;;;;;5056249;28;20780;-87
2022/11/08 02:01:46;;;;;;;0.97;0.70;;;25.10;63.00;;;;;;5056212;28;20427;-85
2022/11/08 02:04:15;;;;;;;1.30;1.00;;;25.10;63.00;;;;;;5056183;28;20447;-86
2022/11/08 02:06:42;;;;;;;1.43;0.93;;;25.10;62.90;;;;;;5065044;28;20448;-84
2022/11/08 02:09:11;;;;;;;1.00;0.77;;;25.10;63.80;;;;;;5075977;28;20801;-87
2022/11/08 02:11:39;;;;;;;1.20;0.80;;;25.10;62.90;;;;;;5076021;28;20843;-84
2022/11/08 02:14:08;;;;;;;1.30;0.90;;;25.10;62.90;;;;;;5075815;28;20447;-87
2022/11/08 02:16:37;;;;;;;1.00;0.90;;;25.10;63.80;;;;;;5074974;28;20458;-86
2022/11/08 02:19:05;;;;;;;1.30;0.90;;;25.10;62.90;;;;;;5074194;28;20452;-87
2022/11/08 02:21:41;;;;;;;1.00;0.80;;;25.10;62.90;;;;;;5076117;28;20447;-87
2022/11/08 02:24:11;;;;;;;1.30;0.90;;;25.10;62.80;;;;;;5075976;28;20453;-87
2022/11/08 02:26:38;;;;;;;1.37;0.80;;;25.10;62.80;;;;;;5074290;28;20447;-87
2022/11/08 02:29:29;;;;;;;1.00;0.70;;;25.10;62.80;;;;;;5075732;28;20952;-88
2022/11/08 02:31:57;;;;;;;1.33;0.80;;;25.10;62.70;;;;;;5074517;28;20479;-87
2022/11/08 02:34:27;;;;;;;1.30;1.00;;;25.00;62.80;;;;;;5075713;28;20460;-87
2022/11/08 02:36:55;;;;;;;1.20;0.93;;;25.20;62.90;;;;;;5058062;28;20444;-87
2022/11/08 02:39:23;;;;;;;1.10;0.80;;;25.10;62.80;;;;;;5055967;28;20482;-88
2022/11/08 02:41:50;;;;;;;1.00;0.80;;;25.10;62.80;;;;;;5055705;28;20448;-87
2022/11/08 02:44:16;;;;;;;1.30;1.03;;;25.00;62.70;;;;;;5055644;28;20450;-87
2022/11/08 02:46:43;;;;;;;1.00;0.70;;;25.00;62.70;;;;;;5055630;28;20463;-87
2022/11/08 02:49:10;;;;;;;1.20;0.80;;;25.20;62.90;;;;;;5055597;28;20451;-88
2022/11/08 02:51:37;;;;;;;1.27;0.93;;;25.00;62.70;;;;;;5070372;28;20841;-87
2022/11/08 02:54:04;;;;;;;1.00;0.80;;;25.00;62.70;;;;;;5075062;28;20451;-88
2022/11/08 02:56:32;;;;;;;1.23;0.90;;;25.00;62.60;;;;;;5075484;28;20454;-87
2022/11/08 02:58:59;;;;;;;1.00;0.80;;;25.00;62.70;;;;;;5075233;28;20817;-87
2022/11/08 03:01:26;;;;;;;1.00;0.90;;;25.00;62.70;;;;;;5075472;28;20444;-87
2022/11/08 03:03:53;;;;;;;1.27;0.80;;;25.10;62.70;;;;;;5075287;28;20471;-87
2022/11/08 03:06:19;;;;;;;0.90;0.70;;;25.00;62.60;;;;;;5075043;28;20494;-88
2022/11/08 03:08:46;;;;;;;1.10;0.87;;;25.00;62.70;;;;;;5075152;28;20439;-87
2022/11/08 03:11:13;;;;;;;1.13;0.90;;;25.10;62.60;;;;;;5074124;28;20474;-87
2022/11/08 03:13:41;;;;;;;1.20;0.87;;;25.10;62.60;;;;;;5074931;28;20443;-88
2022/11/08 03:16:08;;;;;;;1.10;0.80;;;25.00;62.60;;;;;;5074862;28;20455;-88
2022/11/08 03:18:35;;;;;;;1.50;1.13;;;25.00;62.50;;;;;;5075742;28;20528;-87
2022/11/08 03:21:02;;;;;;;1.10;1.00;;;25.20;62.70;;;;;;5075190;28;20501;-88
2022/11/08 03:23:29;;;;;;;1.30;0.90;;;25.10;62.50;;;;;;5075022;28;20535;-87
2022/11/08 03:25:55;;;;;;;1.00;0.80;;;25.00;62.60;;;;;;5074726;28;20462;-87
2022/11/08 03:28:22;;;;;;;1.00;0.70;;;25.00;62.50;;;;;;5074246;28;20447;-86
2022/11/08 03:30:52;;;;;;;1.17;1.03;;;25.00;62.50;;;;;;5074169;28;21045;-86
2022/11/08 03:33:19;;;;;;;1.60;0.80;;;25.00;62.40;;;;;;5074279;28;20501;-86
2022/11/08 03:35:47;;;;;;;1.00;0.90;;;25.00;62.50;;;;;;5074545;28;20530;-86
2022/11/08 03:38:15;;;;;;;1.00;0.80;;;25.00;62.40;;;;;;5074051;28;20498;-88
2022/11/08 03:40:41;;;;;;;1.37;0.97;;;25.00;62.40;;;;;;5074478;28;20440;-86
2022/11/08 03:43:08;;;;;;;1.10;0.80;;;25.00;62.40;;;;;;5073263;28;20442;-87
2022/11/08 03:45:35;;;;;;;1.10;0.90;;;25.00;62.40;;;;;;5074261;28;20446;-86
2022/11/08 03:48:04;;;;;;;1.10;0.90;;;25.00;62.40;;;;;;5073935;28;20445;-87
2022/11/08 03:50:31;;;;;;;1.20;0.87;;;25.00;62.30;;;;;;5073795;28;20475;-87
2022/11/08 03:52:58;;;;;;;1.27;0.90;;;25.00;62.30;;;;;;5073958;28;20505;-87
2022/11/08 03:55:27;;;;;;;1.00;0.73;;;25.00;62.30;;;;;;5073697;28;20517;-86
2022/11/08 03:57:54;;;;;;;1.10;0.80;;;25.00;62.30;;;;;;5073498;28;20958;-86
2022/11/08 04:00:23;;;;;;;1.00;0.80;;;25.00;62.30;;;;;;5073926;28;20443;-85
2022/11/08 04:02:49;;;;;;;1.00;0.80;;;25.00;62.30;;;;;;5073849;28;20449;-86
2022/11/08 04:05:18;;;;;;;1.00;0.80;;;25.00;62.30;;;;;;5073701;28;20806;-87
2022/11/08 04:07:45;;;;;;;1.00;0.80;;;25.00;62.30;;;;;;5073441;28;20444;-87
2022/11/08 04:10:12;;;;;;;1.10;0.90;;;25.00;62.20;;;;;;5073758;28;20439;-87
2022/11/08 04:15:25;;;;;;;1.00;0.70;;;25.00;62.20;;;;;;5073796;28;20515;-86
2022/11/08 04:23:27;;;;;;;1.30;0.80;;;25.00;62.20;;;;;;5073460;28;20463;-86
2022/11/08 04:25:55;;;;;;;0.93;0.70;;;25.00;62.30;;;;;;5073160;28;20970;-87
2022/11/08 04:28:24;;;;;;;1.30;1.00;;;25.00;62.20;;;;;;5073551;28;20552;-88
2022/11/08 04:30:55;;;;;;;1.10;0.90;;;25.00;62.20;;;;;;5073399;28;20436;-86
2022/11/08 04:33:22;;;;;;;1.10;0.83;;;25.00;62.20;;;;;;5073198;28;20458;-85
2022/11/08 04:35:51;;;;;;;1.00;0.80;;;25.00;62.20;;;;;;5072861;28;20447;-87
2022/11/08 04:38:18;;;;;;;1.10;0.80;;;25.00;62.20;;;;;;5073167;28;20439;-85
2022/11/08 04:40:45;;;;;;;1.20;0.90;;;25.00;62.20;;;;;;5073642;28;20447;-85
2022/11/08 04:43:12;;;;;;;1.10;0.80;;;25.00;62.20;;;;;;5074795;28;20534;-84
2022/11/08 04:45:40;;;;;;;1.10;1.00;;;25.00;62.10;;;;;;5074386;28;20447;-86
2022/11/08 04:48:07;;;;;;;1.10;0.80;;;25.00;62.10;;;;;;5072981;28;20949;-85
2022/11/08 04:50:35;;;;;;;1.10;0.80;;;24.90;62.00;;;;;;5073339;28;20476;-86
2022/11/08 04:53:03;;;;;;;1.73;1.10;;;24.90;62.00;;;;;;5073386;28;20499;-87
2022/11/08 04:55:30;;;;;;;1.20;0.80;;;25.00;62.10;;;;;;5074072;28;20464;-87
2022/11/08 04:57:58;;;;;;;1.00;0.80;;;24.90;62.00;;;;;;5073128;28;20516;-87
2022/11/08 05:00:26;;;;;;;1.00;0.70;;;25.00;62.10;;;;;;5075068;28;20444;-87
2022/11/08 05:02:52;;;;;;;1.00;0.73;;;25.00;62.10;;;;;;5073491;28;20495;-87
2022/11/08 05:05:19;;;;;;;1.20;0.87;;;25.00;62.10;;;;;;5070345;28;20447;-86
2022/11/08 05:07:46;;;;;;;1.50;0.77;;;25.00;62.00;;;;;;5065315;28;20441;-85
2022/11/08 05:10:14;;;;;;;1.10;0.90;;;25.00;62.10;;;;;;5073296;28;20436;-87
2022/11/08 05:12:41;;;;;;;1.00;0.80;;;24.90;62.00;;;;;;5072894;28;20483;-86
2022/11/08 05:15:09;;;;;;;1.00;0.80;;;25.00;62.00;;;;;;5073061;28;20450;-87
2022/11/08 05:17:35;;;;;;;1.77;0.80;;;24.90;61.90;;;;;;5070843;28;20447;-85
2022/11/08 05:25:32;;;;;;;1.00;0.77;;;25.10;62.10;;;;;;5072930;28;20455;-85
2022/11/08 05:27:59;;;;;;;1.20;0.80;;;24.90;62.00;;;;;;5072813;28;20445;-85
2022/11/08 05:30:26;;;;;;;1.00;0.80;;;24.90;62.00;;;;;;5073188;28;20431;-84
2022/11/08 05:32:53;;;;;;;1.93;0.90;;;24.90;61.90;;;;;;5066812;28;20482;-87
2022/11/08 05:35:21;;;;;;;1.10;1.00;;;24.80;61.70;;;;;;5073210;28;20447;-86
2022/11/08 05:37:48;;;;;;;1.67;0.83;;;24.80;61.90;;;;;;5072859;28;20465;-86
2022/11/08 05:40:15;;;;;;;1.40;1.00;;;24.90;62.00;;;;;;5073048;28;20461;-86
2022/11/08 05:42:43;;;;;;;1.00;0.80;;;24.90;62.10;;;;;;5060802;28;20489;-85
2022/11/08 05:45:10;;;;;;;2.13;1.10;;;24.90;62.10;;;;;;5068959;28;20444;-86
2022/11/08 05:47:37;;;;;;;1.20;1.00;;;24.90;62.10;;;;;;5072968;28;20435;-86
2022/11/08 05:50:04;;;;;;;1.07;0.90;;;24.90;62.30;;;;;;5072742;28;20443;-85
2022/11/08 05:52:31;;;;;;;1.83;0.80;;;24.90;62.30;;;;;;5062401;28;20495;-86
2022/11/08 05:54:58;;;;;;;1.43;1.17;;;24.90;62.30;;;;;;5052500;28;20460;-87
2022/11/08 05:57:25;;;;;;;1.20;1.00;;;24.90;62.30;;;;;;5052719;28;20532;-86
2022/11/08 05:59:53;;;;;;;1.50;1.00;;;25.00;62.50;;;;;;5052733;28;20543;-86
2022/11/08 06:02:20;;;;;;;1.67;0.80;;;24.90;62.40;;;;;;5059552;28;20438;-85
2022/11/08 06:04:46;;;;;;;1.97;1.10;;;24.90;62.40;;;;;;5073266;28;20444;-85
2022/11/08 06:07:13;;;;;;;1.30;1.00;;;24.90;62.50;;;;;;5070357;28;20531;-86
2022/11/08 06:09:40;;;;;;;2.37;0.90;;;24.90;62.60;;;;;;5073997;28;20450;-86
2022/11/08 06:12:08;;;;;;;1.20;0.87;;;24.80;62.80;;;;;;5074468;28;20474;-86
2022/11/08 06:14:34;;;;;;;2.30;0.90;;;24.80;62.70;;;;;;5076115;28;20442;-85
2022/11/08 06:17:03;;;;;;;1.20;0.90;;;24.90;62.70;;;;;;5068084;28;20438;-86
2022/11/08 06:19:29;;;;;;;1.40;0.93;;;24.90;62.70;;;;;;5076153;28;20438;-86
2022/11/08 06:21:56;;;;;;;1.30;1.00;;;24.90;62.80;;;;;;5075772;28;20456;-86
2022/11/08 06:24:23;;;;;;;1.60;1.00;;;24.90;62.80;;;;;;5075807;28;20461;-86
2022/11/08 06:26:50;;;;;;;1.30;1.00;;;24.90;62.80;;;;;;5075889;28;20484;-86
2022/11/08 06:29:17;;;;;;;1.10;0.90;;;24.90;62.80;;;;;;5076019;28;20517;-86
2022/11/08 06:31:43;;;;;;;1.20;1.10;;;24.90;62.80;;;;;;5075683;28;20449;-86
2022/11/08 06:34:12;;;;;;;1.20;1.10;;;24.90;62.90;;;;;;5064693;28;20954;-87
2022/11/08 06:36:38;;;;;;;1.70;0.97;;;24.90;62.60;;;;;;5055453;28;20522;-85
2022/11/08 06:39:05;;;;;;;1.10;0.80;;;24.90;62.60;;;;;;5055674;28;20775;-85
2022/11/08 06:41:32;;;;;;;1.70;0.90;;;24.90;62.70;;;;;;5055322;28;20453;-85
2022/11/08 06:43:59;;;;;;;1.53;1.00;;;24.90;62.70;;;;;;5056469;28;20436;-92
2022/11/08 06:46:26;;;;;;;1.10;0.90;;;24.70;62.50;;;;;;5057596;28;20452;-86
2022/11/08 06:48:54;;;;;;;3.33;0.97;;;24.90;62.50;;;;;;5036980;28;20444;-96
2022/11/08 06:51:41;;;;;;;1.40;0.90;;;24.90;62.70;;;;;;5061575;28;20574;-94
2022/11/08 06:54:08;;;;;;;1.30;1.00;;;25.00;62.80;;;;;;5055680;28;20871;-90
2022/11/08 06:56:35;;;;;;;1.63;1.00;;;24.90;62.70;;;;;;5059483;28;20451;-96
2022/11/08 06:59:02;;;;;;;1.50;0.90;;;24.90;62.60;;;;;;5059789;28;20544;-87
2022/11/08 07:01:28;;;;;;;2.60;1.13;;;24.90;62.60;;;;;;5055451;28;20519;-91
2022/11/08 07:03:55;;;;;;;1.70;1.00;;;24.80;62.40;;;;;;5055154;28;20465;-88
2022/11/08 07:06:22;;;;;;;2.57;1.30;;;24.90;62.40;;;;;;5055105;28;20973;-88
2022/11/08 07:08:51;;;;;;;1.20;1.00;;;24.80;62.30;;;;;;5055176;28;20448;-88
2022/11/08 07:11:18;;;;;;;1.20;0.90;;;25.00;62.50;;;;;;5055165;28;20806;-88
2022/11/08 07:13:46;;;;;;;1.07;0.97;;;24.90;62.40;;;;;;5054609;28;20492;-89
2022/11/08 07:16:13;;;;;;;1.10;0.90;;;24.90;62.30;;;;;;5054490;28;20547;-88
2022/11/08 07:18:40;;;;;;;1.10;0.80;;;24.90;62.30;;;;;;5054800;28;20434;-88
2022/11/08 07:21:06;;;;;;;1.73;0.90;;;24.90;62.30;;;;;;5054680;28;20454;-88
2022/11/08 07:23:33;;;;;;;1.20;0.90;;;24.90;62.30;;;;;;5054616;28;20446;-88
2022/11/08 07:26:03;;;;;;;1.20;0.90;;;24.90;62.20;;;;;;5054450;28;20534;-88
2022/11/08 07:28:30;;;;;;;5.47;0.90;;;24.90;62.20;;;;;;5054475;28;20459;-88
2022/11/08 07:30:59;;;;;;;1.57;0.80;;;24.90;62.10;;;;;;5054805;28;20441;-88
2022/11/08 07:33:25;;;;;;;1.10;0.90;;;24.90;62.10;;;;;;5054722;28;20495;-88
2022/11/08 07:35:52;;;;;;;1.73;1.00;;;25.10;62.30;;;;;;5054621;28;20446;-88
2022/11/08 07:38:19;;;;;;;1.00;0.70;;;24.90;62.00;;;;;;5054806;28;20776;-88
2022/11/08 07:40:46;;;;;;;1.07;0.80;;;24.90;62.10;;;;;;5054622;28;20447;-88
2022/11/08 07:43:15;;;;;;;1.00;0.80;;;24.90;62.00;;;;;;5055533;28;20759;-88
2022/11/08 07:45:42;;;;;;;1.13;1.03;;;24.90;62.00;;;;;;5054495;28;20447;-88
2022/11/08 07:48:11;;;;;;;1.17;0.97;;;24.90;62.00;;;;;;5054508;28;20521;-88
2022/11/08 07:50:38;;;;;;;0.90;0.70;;;25.00;62.10;;;;;;5054260;28;20491;-88
2022/11/08 07:53:05;;;;;;;2.47;0.90;;;24.90;61.90;;;;;;5053192;28;20480;-88
2022/11/08 07:55:32;;;;;;;1.63;0.90;;;25.00;62.00;;;;;;5052615;28;20471;-88
2022/11/08 07:58:01;;;;;;;1.40;0.83;;;24.90;61.90;;;;;;5054139;28;20447;-88
2022/11/08 08:00:29;;;;;;;1.33;0.90;;;24.90;61.90;;;;;;5053767;28;20953;-88
2022/11/08 08:02:59;;;;;;;1.10;0.90;;;25.00;61.90;;;;;;5054040;28;21072;-88
2022/11/08 08:05:26;;;;;;;1.00;0.80;;;25.00;61.90;;;;;;5053967;28;20799;-88
2022/11/08 08:07:56;;;;;;;1.10;0.80;;;25.00;61.90;;;;;;5053963;28;20494;-88
2022/11/08 08:10:23;;;;;;;1.33;1.10;;;25.20;61.90;;;;;;5053827;28;20443;-87
2022/11/08 08:12:50;;;;;;;1.03;0.87;;;25.00;61.70;;;;;;5053961;28;20490;-89
2022/11/08 08:15:17;;;;;;;1.43;1.33;;;25.00;61.60;;;;;;5054047;28;20439;-88
2022/11/08 08:17:45;;;;;;;1.10;0.90;;;25.10;61.70;;;;;;5054005;28;20526;-88
2022/11/08 08:20:12;;;;;;;1.10;0.70;;;25.30;61.90;;;;;;5053876;28;20439;-88
2022/11/08 08:22:43;;;;;;;1.00;0.90;;;25.10;61.60;;;;;;5053769;28;20964;-88
2022/11/08 08:25:10;;;;;;;1.97;0.90;;;25.30;61.80;;;;;;5053747;28;20816;-89
2022/11/08 08:27:37;;;;;;;1.20;0.87;;;25.10;61.60;;;;;;5053602;28;20939;-87
2022/11/08 08:30:05;;;;;;;1.83;1.00;;;25.20;61.80;;;;;;5053543;28;20446;-88
2022/11/08 08:32:33;;;;;;;0.90;0.80;;;25.20;61.70;;;;;;5053352;28;20982;-89
2022/11/08 08:35:01;;;;;;;1.10;0.90;;;25.20;61.70;;;;;;5053817;28;20449;-88
2022/11/08 08:37:28;;;;;;;1.30;0.90;;;25.30;61.70;;;;;;5053603;28;20440;-88
2022/11/08 08:39:55;;;;;;;1.00;0.77;;;25.30;61.70;;;;;;5053743;28;20851;-88
2022/11/08 08:42:21;;;;;;;1.30;0.80;;;25.30;61.90;;;;;;5053604;28;20454;-89
2022/11/08 08:44:48;;;;;;;1.50;1.10;;;25.40;61.80;;;;;;5053685;28;20513;-88
2022/11/08 08:47:15;;;;;;;1.40;0.83;;;25.40;61.60;;;;;;5053645;28;20453;-88
2022/11/08 08:49:42;;;;;;;1.10;0.90;;;25.50;61.60;;;;;;5053230;28;20447;-88
2022/11/08 08:52:10;;;;;;;1.10;0.87;;;25.50;61.40;;;;;;5053438;28;20468;-88
2022/11/08 08:54:37;;;;;;;1.20;1.07;;;25.60;61.40;;;;;;5053174;28;20464;-88
2022/11/08 08:57:04;;;;;;;1.00;0.73;;;25.60;61.30;;;;;;5053329;28;20451;-88
2022/11/08 08:59:31;;;;;;;0.97;0.70;;;25.60;61.30;;;;;;5053308;28;20436;-89
2022/11/08 09:01:58;;;;;;;1.93;0.90;;;25.60;61.40;;;;;;5053330;28;20847;-88
2022/11/08 09:04:25;;;;;;;1.10;0.80;;;25.70;61.40;;;;;;5053362;28;20479;-88
2022/11/08 09:06:52;;;;;;;1.10;1.00;;;25.60;61.40;;;;;;5053246;28;20444;-88
2022/11/08 09:09:20;;;;;;;2.23;1.03;;;25.60;61.30;;;;;;5053357;28;20799;-88
2022/11/08 09:11:47;;;;;;;1.00;0.80;;;25.70;61.30;;;;;;5053426;28;20448;-88
2022/11/08 09:14:14;;;;;;;1.20;0.83;;;25.70;61.20;;;;;;5053184;28;20495;-88
2022/11/08 09:16:41;;;;;;;1.10;0.80;;;25.80;62.10;;;;;;5053145;28;20441;-88
2022/11/08 09:19:08;;;;;;;1.00;0.70;;;25.80;61.00;;;;;;5052931;28;20444;-88
2022/11/08 09:21:34;;;;;;;1.30;0.83;;;25.90;60.90;;;;;;5053003;28;20437;-89
2022/11/08 09:24:01;;;;;;;1.20;0.83;;;26.10;60.90;;;;;;5052975;28;20477;-88
2022/11/08 09:26:29;;;;;;;1.07;0.90;;;26.10;60.50;;;;;;5053022;28;20563;-88
2022/11/08 09:28:56;;;;;;;1.10;0.90;;;26.20;60.30;;;;;;5053065;28;20551;-88
2022/11/08 09:31:23;;;;;;;1.07;0.90;;;26.20;60.10;;;;;;5053163;28;20448;-88
2022/11/08 09:33:50;;;;;;;1.30;1.07;;;26.30;60.00;;;;;;5052870;28;20489;-88
2022/11/08 09:36:17;;;;;;;1.70;0.90;;;26.20;60.10;;;;;;5052908;28;20441;-88
2022/11/08 09:38:44;;;;;;;1.20;0.90;;;26.20;60.10;;;;;;5052951;28;20438;-88
2022/11/08 09:41:35;;;;;;;1.00;0.70;;;26.20;60.30;;;;;;5038144;28;20802;-89
2022/11/08 09:44:10;;;;;;;1.10;0.90;;;26.20;60.10;;;;;;5057024;28;20445;-88
2022/11/08 09:46:43;;;;;;;1.63;0.80;;;26.20;60.20;;;;;;5056698;28;20447;-88
2022/11/08 09:49:17;;;;;;;1.07;0.93;;;26.20;60.20;;;;;;5056899;28;20436;-88
2022/11/08 09:51:44;;;;;;;1.20;0.97;;;26.30;60.00;;;;;;5056240;28;20483;-89
2022/11/08 09:54:18;;;;;;;1.30;1.03;;;26.40;60.00;;;;;;5056229;28;20495;-88
2022/11/08 09:56:48;;;;;;;1.40;1.10;;;26.50;59.80;;;;;;5056468;28;20479;-88
2022/11/08 09:59:27;;;;;;;1.03;0.90;;;26.50;59.70;;;;;;5056514;28;20433;-88
2022/11/08 10:01:54;;;;;;;1.20;0.70;;;26.50;59.80;;;;;;5056608;28;20846;-88
2022/11/08 10:04:24;;;;;;;1.13;0.83;;;26.40;59.80;;;;;;5056225;28;20961;-88
2022/11/08 10:07:03;;;;;;;1.37;0.80;;;26.30;59.90;;;;;;5056207;28;20435;-88
2022/11/08 10:10:00;;;;;;;1.17;1.07;;;26.30;60.00;;;;;;5056470;28;20428;-89
2022/11/08 10:12:40;;;;;;;1.20;1.00;;;26.20;60.10;;;;;;5055038;28;20525;-88
2022/11/08 10:15:19;;;;;;;1.00;0.83;;;26.20;60.40;;;;;;5056016;28;20445;-88
2022/11/08 10:18:11;;;;;;;1.00;0.90;;;26.10;60.40;;;;;;5056094;28;20471;-88
2022/11/08 10:20:52;;;;;;;1.20;0.87;;;26.00;61.30;;;;;;5056007;28;20455;-89
2022/11/08 10:23:22;;;;;;;0.97;0.77;;;26.00;60.80;;;;;;5056282;28;20447;-88
2022/11/08 10:25:53;;;;;;;1.20;0.93;;;25.90;60.80;;;;;;5056185;28;20781;-88
2022/11/08 10:28:26;;;;;;;1.00;0.80;;;25.80;60.90;;;;;;5056075;28;20441;-88
2022/11/08 10:30:54;;;;;;;1.10;0.90;;;25.80;61.00;;;;;;5056277;28;20435;-89
2022/11/08 10:33:28;;;;;;;1.10;0.87;;;25.80;61.20;;;;;;5055796;28;20991;-88
2022/11/08 10:35:59;;;;;;;1.00;0.90;;;25.70;61.20;;;;;;5055683;28;20919;-89
2022/11/08 10:38:32;;;;;;;1.10;0.80;;;25.80;61.40;;;;;;5055958;28;20441;-88
2022/11/08 10:41:06;;;;;;;1.03;0.80;;;25.70;61.40;;;;;;5055905;28;20445;-89
2022/11/08 10:43:38;;;;;;;2.23;0.80;;;25.60;61.40;;;;;;5055848;28;20467;-89
2022/11/08 10:46:05;;;;;;;0.90;0.70;;;25.60;61.40;;;;;;5055729;28;20771;-89
2022/11/08 10:48:37;;;;;;;1.17;0.90;;;25.60;61.50;;;;;;5055670;28;20463;-89
2022/11/08 10:51:04;;;;;;;1.10;0.83;;;25.60;61.50;;;;;;5054654;28;20472;-89
2022/11/08 10:53:31;;;;;;;1.00;0.70;;;25.60;61.50;;;;;;5054815;28;20824;-89
2022/11/08 10:56:00;;;;;;;1.00;0.70;;;25.60;61.60;;;;;;5055543;28;20439;-89
2022/11/08 10:58:29;;;;;;;1.00;0.80;;;25.50;61.60;;;;;;5055335;28;20444;-89
2022/11/08 11:01:02;;;;;;;1.10;0.80;;;25.50;61.70;;;;;;5054934;28;20881;-89
2022/11/08 11:03:29;;;;;;;1.10;0.70;;;25.40;61.70;;;;;;5055429;28;20475;-89
2022/11/08 11:05:59;;;;;;;1.00;0.80;;;25.40;61.80;;;;;;5055494;28;20444;-88
2022/11/08 11:08:26;;;;;;;1.20;0.83;;;25.40;61.80;;;;;;5055067;28;20445;-89
2022/11/08 11:10:54;;;;;;;1.20;0.90;;;25.40;61.90;;;;;;5055127;28;20498;-89
2022/11/08 11:13:23;;;;;;;1.00;0.80;;;25.30;61.90;;;;;;5055102;28;20472;-89
2022/11/08 11:15:52;;;;;;;1.63;0.90;;;25.40;62.00;;;;;;5054907;28;20516;-89
2022/11/08 11:18:27;;;;;;;0.90;0.70;;;25.30;61.90;;;;;;5055187;28;20484;-89
2022/11/08 11:21:12;;;;;;;1.20;1.10;;;25.30;62.00;;;;;;5055230;28;20438;-89
2022/11/08 11:23:43;;;;;;;1.00;0.70;;;25.30;62.00;;;;;;5055008;28;20476;-89
2022/11/08 11:26:19;;;;;;;1.20;0.83;;;25.30;62.10;;;;;;5054873;28;20463;-89
2022/11/08 11:29:07;;;;;;;1.10;1.00;;;25.30;62.10;;;;;;5055089;28;20450;-89
2022/11/08 11:31:36;;;;;;;1.00;0.80;;;25.50;62.20;;;;;;5054777;28;20450;-89
2022/11/08 11:34:33;;;;;;;1.00;0.80;;;25.20;63.00;;;;;;5054585;28;20488;-89
2022/11/08 11:37:05;;;;;;;1.00;0.70;;;25.30;62.10;;;;;;5054995;28;20450;-90
2022/11/08 11:39:39;;;;;;;1.10;0.90;;;25.30;62.00;;;;;;5054812;28;20791;-89
2022/11/08 11:42:13;;;;;;;1.37;0.90;;;25.40;62.00;;;;;;5054636;28;20437;-89
2022/11/08 11:44:58;;;;;;;1.20;0.90;;;25.40;61.90;;;;;;5054440;28;20518;-89
2022/11/08 11:47:31;;;;;;;1.00;0.83;;;25.40;61.70;;;;;;5054340;28;20927;-89
2022/11/08 11:50:04;;;;;;;1.00;0.70;;;25.60;61.90;;;;;;5054461;28;20831;-89
2022/11/08 11:52:32;;;;;;;1.10;0.80;;;25.50;61.70;;;;;;5054495;28;20437;-89
2022/11/08 11:54:58;;;;;;;1.00;0.90;;;25.50;61.70;;;;;;5054024;28;20500;-90
2022/11/08 11:57:32;;;;;;;1.10;0.90;;;25.50;61.70;;;;;;5054168;28;20441;-89
2022/11/08 12:00:05;;;;;;;1.00;0.77;;;25.50;61.60;;;;;;5054298;28;20443;-89
2022/11/08 12:03:07;;;;;;;1.00;0.90;;;25.50;61.70;;;;;;5053846;28;20440;-89
2022/11/08 12:06:11;;;;;;;1.10;0.80;;;25.50;61.60;;;;;;5053978;28;20444;-89
2022/11/08 12:08:59;;;;;;;1.00;0.77;;;25.50;61.60;;;;;;5054295;28;20451;-89
2022/11/08 12:11:40;;;;;;;1.33;0.80;;;25.50;61.80;;;;;;5054009;28;20439;-89
2022/11/08 12:14:34;;;;;;;1.13;0.80;;;25.50;61.70;;;;;;5053844;28;20485;-89
2022/11/08 12:17:15;;;;;;;1.07;0.90;;;25.50;61.70;;;;;;5054217;28;20462;-89
2022/11/08 12:19:48;;;;;;;1.10;0.80;;;25.50;61.80;;;;;;5053905;28;20908;-89
2022/11/08 12:22:33;;;;;;;1.20;1.10;;;25.50;61.60;;;;;;5054060;28;20807;-89
2022/11/08 12:25:07;;;;;;;1.17;0.93;;;25.50;61.60;;;;;;5053848;28;20469;-89
2022/11/08 12:27:44;;;;;;;1.00;0.80;;;25.50;61.60;;;;;;5053586;28;20777;-89
2022/11/08 12:30:15;;;;;;;1.10;0.90;;;25.50;61.60;;;;;;5053894;28;20452;-88
2022/11/08 12:33:05;;;;;;;1.30;1.00;;;25.50;61.60;;;;;;5053651;28;20501;-89
2022/11/08 12:35:42;;;;;;;1.10;0.90;;;25.50;61.50;;;;;;5053437;28;20847;-89
2022/11/08 12:38:29;;;;;;;1.10;0.87;;;25.50;61.60;;;;;;5053681;28;20442;-89
2022/11/08 12:41:08;;;;;;;1.30;1.00;;;25.60;61.60;;;;;;5054512;28;20445;-88
2022/11/08 12:43:47;;;;;;;1.10;0.90;;;25.60;61.50;;;;;;5053717;28;20443;-89
2022/11/08 12:46:17;;;;;;;1.00;0.77;;;25.60;61.40;;;;;;5053657;28;20937;-88
2022/11/08 12:48:57;;;;;;;1.00;0.80;;;25.60;61.40;;;;;;5053340;28;20439;-88
2022/11/08 12:51:29;;;;;;;1.10;0.90;;;25.60;61.30;;;;;;5053474;28;20963;-89
2022/11/08 12:54:14;;;;;;;1.00;0.80;;;25.60;61.30;;;;;;5051945;28;20939;-90
2022/11/08 12:56:44;;;;;;;1.10;0.90;;;25.60;61.30;;;;;;5035448;28;20453;-89
2022/11/08 12:59:19;;;;;;;1.00;0.90;;;25.60;61.30;;;;;;5053257;28;20429;-90
2022/11/08 13:01:47;;;;;;;1.23;0.80;;;25.60;61.20;;;;;;5053558;28;20516;-89
2022/11/08 13:04:31;;;;;;;1.00;0.80;;;25.60;61.20;;;;;;5053389;28;20441;-89
2022/11/08 13:07:05;;;;;;;1.10;0.80;;;25.60;61.20;;;;;;5053704;28;20442;-90
2022/11/08 13:09:46;;;;;;;1.10;0.90;;;25.60;61.30;;;;;;5052776;28;20443;-92
2022/11/08 13:12:30;;;;;;;1.37;1.00;;;25.60;61.30;;;;;;5052137;28;20490;-87
2022/11/08 13:14:59;;;;;;;1.10;0.80;;;25.50;60.90;;;;;;5053714;28;21130;-83
2022/11/08 13:17:27;;;;;;;1.00;0.80;;;25.50;60.20;;;;;;5056761;28;20450;-83
2022/11/08 13:20:00;;;;;;;1.13;0.80;;;25.50;59.90;;;;;;5056910;28;20440;-86
2022/11/08 13:22:59;;;;;;;1.30;1.00;;;25.50;59.70;;;;;;5057262;28;20442;-84
2022/11/08 13:25:38;;;;;;;3.10;1.37;;;25.40;59.50;;;;;;5056360;28;20462;-84
2022/11/08 13:28:37;;;;;;;3.27;0.80;;;25.40;59.60;;;;;;5056489;28;20456;-83